ADDS METAR Data INFO
IDs: Format: Raw Decoded Include TAF

Data at: 1510 UTC 23 Oct 2017

KMYP 231450Z AUTO 26017KT 10SM CLR M01/M05 A3072 RMK AO2
KMYP 231432Z AUTO 27017KT 10SM CLR M02/M06 A3072 RMK AO2
KMYP 231414Z AUTO 27021KT 10SM CLR M02/M06 A3069 RMK AO2
KMYP 231350Z AUTO 27025G35KT 10SM CLR M02/M06 A3068 RMK AO2
KMYP 231331Z AUTO 27036G39KT 10SM CLR M02/M06 A3064 RMK AO2
KMYP 231313Z AUTO 27035KT 10SM CLR M02/M06 A3063 RMK AO2
KMYP 231250Z AUTO 27036G40KT 10SM CLR M02/M05 A3063 RMK AO2
KMYP 231232Z AUTO 27033G39KT 10SM CLR M02/M06 A3064 RMK AO2
KMYP 231212Z AUTO 27032G39KT 10SM CLR M01/M06 A3065 RMK AO2
KMYP 231152Z AUTO 27031KT 10SM CLR M02/M06 A3065 RMK AO2
KMYP 231130Z AUTO 27036G41KT 10SM CLR M01/M05 A3064 RMK AO2
KMYP 231112Z AUTO 27032G40KT 10SM CLR M01/M05 A3064 RMK AO2
KMYP 231048Z AUTO 27037G44KT 10SM CLR M01/M06 A3062 RMK AO2
KMYP 231029Z AUTO 27039G44KT 10SM CLR M01/M06 A3062 RMK AO2
KMYP 231011Z AUTO 27035G44KT 10SM CLR M01/M06 A3063 RMK AO2
KMYP 230951Z AUTO 27037G52KT 10SM CLR M01/M06 A3061 RMK AO2
KMYP 230933Z AUTO 27039G50KT 10SM CLR M01/M07 A3063 RMK AO2
KMYP 230913Z AUTO 27037G47KT 10SM CLR M01/M07 A3062 RMK AO2
KMYP 230851Z AUTO 27041G49KT 10SM CLR M01/M07 A3062 RMK AO2
KMYP 230832Z AUTO 27039G44KT 10SM CLR M01/M08 A3063 RMK AO2
KMYP 230813Z AUTO 27041G46KT 10SM CLR M01/M08 A3063 RMK AO2
KMYP 230753Z AUTO 27041G49KT 10SM CLR M01/M08 A3062 RMK AO2
KMYP 230734Z AUTO 27041G46KT 10SM CLR M01/M08 A3063 RMK AO2
KMYP 230714Z AUTO 27044G48KT 10SM CLR M01/M08 A3063 RMK AO2
KMYP 230649Z AUTO 27041G46KT 10SM CLR M01/M08 A3063 RMK AO2
KMYP 230630Z AUTO 27043G48KT 10SM CLR M01/M09 A3062 RMK AO2
KMYP 230612Z AUTO 27040G46KT 10SM CLR 00/M08 A3062 RMK AO2
KMYP 230553Z AUTO 27043G54KT 10SM CLR 00/M09 A3062 RMK AO2
KMYP 230533Z AUTO 28046G52KT 10SM CLR 00/M09 A3063 RMK AO2
KMYP 230513Z AUTO 27045G52KT 10SM CLR 00/M09 A3063 RMK AO2
KMYP 230453Z AUTO 28043G49KT 10SM CLR 00/M09 A3063 RMK AO2
KMYP 230432Z AUTO 27042G51KT 10SM CLR 00/M10 A3064 RMK AO2
KMYP 230414Z AUTO 28042G49KT 10SM CLR 00/M10 A3064 RMK AO2
KMYP 230351Z AUTO 27040G45KT 10SM CLR 00/M10 A3064 RMK AO2
KMYP 230334Z AUTO 27035G43KT 10SM CLR 00/M10 A3065 RMK AO2
KMYP 230309Z AUTO 27037G46KT 10SM CLR 00/M10 A3063 RMK AO2
KMYP 230251Z AUTO 27040G45KT 10SM CLR 00/M10 A3064 RMK AO2
KMYP 230232Z AUTO 27041G47KT 10SM CLR 00/M10 A3065 RMK AO2
KMYP 230213Z AUTO 27036G44KT 10SM CLR 00/M10 A3065 RMK AO2
KMYP 230151Z AUTO 27039G48KT 10SM CLR 00/M10 A3065 RMK AO2
KMYP 230130Z AUTO 27040G48KT 10SM CLR 00/M09 A3064 RMK AO2
KMYP 230112Z AUTO 27034G43KT 10SM CLR 00/M09 A3064 RMK AO2
KMYP 230049Z AUTO 27037G42KT 10SM CLR 00/M09 A3063 RMK AO2
KMYP 230031Z AUTO 27040G45KT 10SM CLR 00/M08 A3062 RMK AO2
KMYP 230012Z AUTO 27040G49KT 10SM CLR 01/M07 A3062 RMK AO2
KMYP 222350Z AUTO 27043G47KT 10SM CLR 02/M06 A3061 RMK AO2
KMYP 222330Z AUTO 26032G40KT 10SM CLR 02/M06 A3062 RMK AO2
KMYP 222311Z AUTO 27036G43KT 10SM CLR 02/M06 A3062 RMK AO2
KMYP 222251Z AUTO 27036G44KT 10SM CLR 02/M06 A3061 RMK AO2
KMYP 222234Z AUTO 27033G46KT 10SM CLR 02/M06 A3062 RMK AO2
KMYP 222209Z AUTO 26036G44KT 10SM CLR 03/M06 A3063 RMK AO2
KMYP 222151Z AUTO 27034G41KT 10SM CLR 03/M06 A3064 RMK AO2
KMYP 222133Z AUTO 26029G41KT 10SM CLR 02/M07 A3063 RMK AO2
KMYP 222108Z AUTO 26032G39KT 10SM CLR 02/M06 A3061 RMK AO2
KMYP 222049Z AUTO 26031G34KT 10SM CLR 02/M06 A3063 RMK AO2
KMYP 222032Z AUTO 24025G29KT 10SM CLR 02/M06 A3063 RMK AO2
KMYP 222014Z AUTO 26031G34KT 10SM CLR 01/M07 A3063 RMK AO2
KMYP 221951Z AUTO 25034KT 10SM CLR 01/M07 A3061 RMK AO2
KMYP 221933Z AUTO 25030G35KT 10SM CLR 01/M07 A3061 RMK AO2
KMYP 221912Z AUTO 24024G36KT 10SM CLR 00/M07 A3062 RMK AO2
KMYP 221854Z AUTO 24027G36KT 10SM CLR 00/M07 A3061 RMK AO2
KMYP 221831Z AUTO 25025G34KT 10SM CLR M01/M08 A3062 RMK AO2
KMYP 221812Z AUTO 26034KT 10SM CLR M02/M08 A3060 RMK AO2
KMYP 221751Z AUTO 26036G43KT 10SM CLR M02/M09 A3059 RMK AO2
KMYP 221733Z AUTO 24029G37KT 10SM CLR M03/M10 A3060 RMK AO2
KMYP 221708Z AUTO 25030G37KT 10SM CLR M05/M10 A3060 RMK AO2
KMYP 221651Z AUTO 25035G40KT 10SM CLR M05/M11 A3059 RMK AO2
KMYP 221632Z AUTO 25036G41KT 10SM CLR M05/M11 A3058 RMK AO2
KMYP 221608Z AUTO 25036G39KT 10SM CLR M05/M11 A3057 RMK AO2
KMYP 221553Z AUTO 26034G38KT 10SM CLR M05/M11 A3057 RMK AO2
KMYP 221534Z AUTO 26035KT 10SM CLR M06/M12 A3056 RMK AO2
KMYP 221513Z AUTO 26037KT 10SM CLR M07/M12 A3055 RMK AO2
KMYP 221451Z AUTO 27040KT 10SM CLR M07/M12 A3053 RMK AO2
KMYP 221432Z AUTO 27042G47KT 10SM CLR M07/M12 A3051 RMK AO2
KMYP 221412Z AUTO 27043KT 10SM CLR M07/M13 A3050 RMK AO2
KMYP 221351Z AUTO 27043G49KT 10SM CLR M07/M13 A3048 RMK AO2
KMYP 221331Z AUTO 27047KT 10SM CLR M07/M13 A3046 RMK AO2
KMYP 221312Z AUTO 27045G49KT 10SM CLR M08/M13 A3045 RMK AO2
KMYP 221253Z AUTO 27045G49KT 10SM CLR M08/M14 A3045 RMK AO2
KMYP 221234Z AUTO 27045G49KT 10SM CLR M08/M14 A3045 RMK AO2
KMYP 221214Z AUTO 27043G48KT 10SM CLR M08/M14 A3046 RMK AO2
KMYP 221149Z AUTO 27039KT 10SM CLR M07/M14 A3046 RMK AO2
KMYP 221130Z AUTO 28042G46KT 10SM CLR M08/M14 A3046 RMK AO2
KMYP 221113Z AUTO 28041KT 10SM CLR M07/M14 A3045 RMK AO2
KMYP 221052Z AUTO 28042KT 10SM CLR M08/M14 A3045 RMK AO2
KMYP 221034Z AUTO 27045KT 10SM CLR M08/M15 A3043 RMK AO2
KMYP 221014Z AUTO 28041G46KT 10SM CLR M07/M15 A3044 RMK AO2
KMYP 220953Z AUTO 27042KT 10SM CLR M07/M15 A3044 RMK AO2
KMYP 220933Z AUTO 27045G49KT 10SM CLR M08/M15 A3043 RMK AO2
KMYP 220912Z AUTO 28043G47KT 10SM CLR M07/M15 A3044 RMK AO2
KMYP 220848Z AUTO 27041KT 10SM CLR M08/M15 A3044 RMK AO2
KMYP 220829Z AUTO 27044KT 10SM CLR M07/M15 A3043 RMK AO2
KMYP 220810Z AUTO 27042G46KT 10SM CLR M07/M15 A3044 RMK AO2
KMYP 220752Z AUTO 27041G44KT 10SM CLR M07/M15 A3044 RMK AO2
KMYP 220733Z AUTO 27041G46KT 10SM CLR M08/M15 A3044 RMK AO2
KMYP 220714Z AUTO 27039KT 10SM CLR M08/M14 A3044 RMK AO2
KMYP 220649Z AUTO 27040G43KT 10SM CLR M08/M14 A3043 RMK AO2
KMYP 220630Z AUTO 27041KT 10SM CLR M08/M14 A3041 RMK AO2
KMYP 220613Z AUTO 27040KT 10SM CLR M07/M15 A3041 RMK AO2
KMYP 220547Z AUTO 27037G41KT 10SM CLR M07/M15 A3042 RMK AO2
KMYP 220529Z AUTO 27040KT 10SM CLR M07/M15 A3041 RMK AO2
KMYP 220514Z AUTO 27037KT 10SM CLR M07/M15 A3041 RMK AO2
KMYP 220454Z AUTO 27035G41KT 10SM CLR M07/M15 A3041 RMK AO2
KMYP 220433Z AUTO 27036G40KT 10SM CLR M07/M15 A3041 RMK AO2
KMYP 220413Z AUTO 27032G38KT 10SM CLR M07/M15 A3041 RMK AO2
KMYP 220349Z AUTO 27028KT 10SM CLR M07/M15 A3041 RMK AO2
KMYP 220331Z AUTO 27029G36KT 10SM CLR M07/M15 A3041 RMK AO2
KMYP 220312Z AUTO 27029G33KT 10SM CLR M07/M15 A3041 RMK AO2